sensor_id;sensor_type;location;lat;lon;timestamp;temperature;humidity
9984;DHT22;16737;50.932;6.780;2022-07-10T00:00:25;18.10;77.00
9984;DHT22;16737;50.932;6.780;2022-07-10T00:02:53;18.10;77.10
9984;DHT22;16737;50.932;6.780;2022-07-10T00:05:22;18.00;77.20
9984;DHT22;16737;50.932;6.780;2022-07-10T00:07:50;18.00;77.50
9984;DHT22;16737;50.932;6.780;2022-07-10T00:10:18;18.00;77.40
9984;DHT22;16737;50.932;6.780;2022-07-10T00:12:47;17.90;77.50
9984;DHT22;16737;50.932;6.780;2022-07-10T00:15:15;17.90;77.60
9984;DHT22;16737;50.932;6.780;2022-07-10T00:17:42;17.90;77.60
9984;DHT22;16737;50.932;6.780;2022-07-10T00:20:11;17.80;77.60
9984;DHT22;16737;50.932;6.780;2022-07-10T00:22:40;17.80;77.80
9984;DHT22;16737;50.932;6.780;2022-07-10T00:25:10;17.80;78.10
9984;DHT22;16737;50.932;6.780;2022-07-10T00:27:38;17.80;78.30
9984;DHT22;16737;50.932;6.780;2022-07-10T00:30:08;17.70;78.00
9984;DHT22;16737;50.932;6.780;2022-07-10T00:32:36;17.70;78.10
9984;DHT22;16737;50.932;6.780;2022-07-10T00:35:04;17.70;78.20
9984;DHT22;16737;50.932;6.780;2022-07-10T00:37:32;17.60;78.20
9984;DHT22;16737;50.932;6.780;2022-07-10T00:40:00;17.60;78.40
9984;DHT22;16737;50.932;6.780;2022-07-10T00:42:27;17.60;78.50
9984;DHT22;16737;50.932;6.780;2022-07-10T00:44:54;17.60;78.50
9984;DHT22;16737;50.932;6.780;2022-07-10T00:47:22;17.60;78.70
9984;DHT22;16737;50.932;6.780;2022-07-10T00:49:49;17.50;78.50
9984;DHT22;16737;50.932;6.780;2022-07-10T00:52:17;17.50;78.50
9984;DHT22;16737;50.932;6.780;2022-07-10T00:54:45;17.50;78.70
9984;DHT22;16737;50.932;6.780;2022-07-10T00:57:18;17.50;79.50
9984;DHT22;16737;50.932;6.780;2022-07-10T00:59:48;17.40;78.90
9984;DHT22;16737;50.932;6.780;2022-07-10T01:02:16;17.40;79.00
9984;DHT22;16737;50.932;6.780;2022-07-10T01:04:43;17.40;79.00
9984;DHT22;16737;50.932;6.780;2022-07-10T01:07:10;17.40;79.10
9984;DHT22;16737;50.932;6.780;2022-07-10T01:09:41;17.30;79.00
9984;DHT22;16737;50.932;6.780;2022-07-10T01:12:08;17.30;79.20
9984;DHT22;16737;50.932;6.780;2022-07-10T01:14:39;17.30;79.40
9984;DHT22;16737;50.932;6.780;2022-07-10T01:17:07;17.30;80.50
9984;DHT22;16737;50.932;6.780;2022-07-10T01:19:35;17.30;79.60
9984;DHT22;16737;50.932;6.780;2022-07-10T01:22:04;17.30;79.70
9984;DHT22;16737;50.932;6.780;2022-07-10T01:24:31;17.30;80.00
9984;DHT22;16737;50.932;6.780;2022-07-10T01:26:58;17.30;80.00
9984;DHT22;16737;50.932;6.780;2022-07-10T01:29:25;17.30;80.10
9984;DHT22;16737;50.932;6.780;2022-07-10T01:31:53;17.30;80.20
9984;DHT22;16737;50.932;6.780;2022-07-10T01:34:20;17.30;80.30
9984;DHT22;16737;50.932;6.780;2022-07-10T01:36:48;17.30;80.40
9984;DHT22;16737;50.932;6.780;2022-07-10T01:39:16;17.30;80.50
9984;DHT22;16737;50.932;6.780;2022-07-10T01:41:43;17.30;80.70
9984;DHT22;16737;50.932;6.780;2022-07-10T01:44:10;17.30;80.50
9984;DHT22;16737;50.932;6.780;2022-07-10T01:46:44;17.30;80.60
9984;DHT22;16737;50.932;6.780;2022-07-10T01:49:11;17.30;81.20
9984;DHT22;16737;50.932;6.780;2022-07-10T01:51:39;17.40;80.90
9984;DHT22;16737;50.932;6.780;2022-07-10T01:54:06;17.40;81.00
9984;DHT22;16737;50.932;6.780;2022-07-10T01:56:35;17.40;80.90
9984;DHT22;16737;50.932;6.780;2022-07-10T01:59:02;17.40;81.20
9984;DHT22;16737;50.932;6.780;2022-07-10T02:01:29;17.40;81.20
9984;DHT22;16737;50.932;6.780;2022-07-10T02:03:56;17.40;81.30
9984;DHT22;16737;50.932;6.780;2022-07-10T02:06:41;17.40;81.30
9984;DHT22;16737;50.932;6.780;2022-07-10T02:09:08;17.40;81.30
9984;DHT22;16737;50.932;6.780;2022-07-10T02:11:38;17.40;81.30
9984;DHT22;16737;50.932;6.780;2022-07-10T02:14:05;17.40;81.50
9984;DHT22;16737;50.932;6.780;2022-07-10T02:16:33;17.40;81.50
9984;DHT22;16737;50.932;6.780;2022-07-10T02:19:01;17.40;81.50
9984;DHT22;16737;50.932;6.780;2022-07-10T02:21:28;17.40;81.50
9984;DHT22;16737;50.932;6.780;2022-07-10T02:23:55;17.40;81.50
9984;DHT22;16737;50.932;6.780;2022-07-10T02:26:23;17.40;81.50
9984;DHT22;16737;50.932;6.780;2022-07-10T02:28:51;17.40;81.60
9984;DHT22;16737;50.932;6.780;2022-07-10T02:31:18;17.40;81.90
9984;DHT22;16737;50.932;6.780;2022-07-10T02:33:45;17.40;81.70
9984;DHT22;16737;50.932;6.780;2022-07-10T02:36:12;17.40;81.70
9984;DHT22;16737;50.932;6.780;2022-07-10T02:38:39;17.50;82.00
9984;DHT22;16737;50.932;6.780;2022-07-10T02:41:06;17.40;81.90
9984;DHT22;16737;50.932;6.780;2022-07-10T02:43:33;17.50;82.00
9984;DHT22;16737;50.932;6.780;2022-07-10T02:46:02;17.50;82.00
9984;DHT22;16737;50.932;6.780;2022-07-10T02:48:30;17.50;82.10
9984;DHT22;16737;50.932;6.780;2022-07-10T02:50:57;17.50;81.80
9984;DHT22;16737;50.932;6.780;2022-07-10T02:53:24;17.50;82.70
9984;DHT22;16737;50.932;6.780;2022-07-10T02:55:51;17.50;81.80
9984;DHT22;16737;50.932;6.780;2022-07-10T02:58:18;17.50;81.80
9984;DHT22;16737;50.932;6.780;2022-07-10T03:00:45;17.40;81.70
9984;DHT22;16737;50.932;6.780;2022-07-10T03:03:13;17.50;82.00
9984;DHT22;16737;50.932;6.780;2022-07-10T03:05:42;17.40;82.10
9984;DHT22;16737;50.932;6.780;2022-07-10T03:08:10;17.40;82.00
9984;DHT22;16737;50.932;6.780;2022-07-10T03:10:37;17.40;82.00
9984;DHT22;16737;50.932;6.780;2022-07-10T03:13:04;17.40;82.00
9984;DHT22;16737;50.932;6.780;2022-07-10T03:15:31;17.40;82.00
9984;DHT22;16737;50.932;6.780;2022-07-10T03:17:58;17.40;81.90
9984;DHT22;16737;50.932;6.780;2022-07-10T03:20:27;17.40;82.00
9984;DHT22;16737;50.932;6.780;2022-07-10T03:22:54;17.40;82.10
9984;DHT22;16737;50.932;6.780;2022-07-10T03:25:21;17.40;81.90
9984;DHT22;16737;50.932;6.780;2022-07-10T03:27:48;17.40;82.00
9984;DHT22;16737;50.932;6.780;2022-07-10T03:30:15;17.40;82.00
9984;DHT22;16737;50.932;6.780;2022-07-10T03:32:42;17.40;82.20
9984;DHT22;16737;50.932;6.780;2022-07-10T03:35:09;17.40;82.20
9984;DHT22;16737;50.932;6.780;2022-07-10T03:37:38;17.30;82.20
9984;DHT22;16737;50.932;6.780;2022-07-10T03:40:05;17.30;82.40
9984;DHT22;16737;50.932;6.780;2022-07-10T03:42:33;17.30;82.50
9984;DHT22;16737;50.932;6.780;2022-07-10T03:45:00;17.30;82.30
9984;DHT22;16737;50.932;6.780;2022-07-10T03:47:27;17.20;82.40
9984;DHT22;16737;50.932;6.780;2022-07-10T03:49:55;17.20;82.50
9984;DHT22;16737;50.932;6.780;2022-07-10T03:52:22;17.20;82.70
9984;DHT22;16737;50.932;6.780;2022-07-10T03:54:50;17.20;82.70
9984;DHT22;16737;50.932;6.780;2022-07-10T03:57:19;17.20;83.80
9984;DHT22;16737;50.932;6.780;2022-07-10T04:00:05;17.20;83.00
9984;DHT22;16737;50.932;6.780;2022-07-10T04:02:33;17.10;82.90
9984;DHT22;16737;50.932;6.780;2022-07-10T04:05:00;17.20;83.10
9984;DHT22;16737;50.932;6.780;2022-07-10T04:07:27;17.10;83.10
9984;DHT22;16737;50.932;6.780;2022-07-10T04:09:56;17.10;83.20
9984;DHT22;16737;50.932;6.780;2022-07-10T04:12:23;17.20;83.70
9984;DHT22;16737;50.932;6.780;2022-07-10T04:14:50;17.10;83.40
9984;DHT22;16737;50.932;6.780;2022-07-10T04:17:17;17.10;83.50
9984;DHT22;16737;50.932;6.780;2022-07-10T04:19:44;17.10;83.50
9984;DHT22;16737;50.932;6.780;2022-07-10T04:22:11;17.00;83.50
9984;DHT22;16737;50.932;6.780;2022-07-10T04:24:39;17.00;83.60
9984;DHT22;16737;50.932;6.780;2022-07-10T04:27:07;17.00;83.60
9984;DHT22;16737;50.932;6.780;2022-07-10T04:29:34;17.00;83.90
9984;DHT22;16737;50.932;6.780;2022-07-10T04:32:02;17.00;83.80
9984;DHT22;16737;50.932;6.780;2022-07-10T04:34:30;17.00;83.90
9984;DHT22;16737;50.932;6.780;2022-07-10T04:36:57;17.00;83.90
9984;DHT22;16737;50.932;6.780;2022-07-10T04:39:24;16.90;83.90
9984;DHT22;16737;50.932;6.780;2022-07-10T04:41:51;16.90;83.90
9984;DHT22;16737;50.932;6.780;2022-07-10T04:44:19;16.90;84.10
9984;DHT22;16737;50.932;6.780;2022-07-10T04:46:46;16.90;84.30
9984;DHT22;16737;50.932;6.780;2022-07-10T04:49:13;16.90;84.30
9984;DHT22;16737;50.932;6.780;2022-07-10T04:51:40;16.90;84.50
9984;DHT22;16737;50.932;6.780;2022-07-10T04:54:07;16.90;84.60
9984;DHT22;16737;50.932;6.780;2022-07-10T04:56:34;16.90;84.70
9984;DHT22;16737;50.932;6.780;2022-07-10T04:59:01;16.90;84.90
9984;DHT22;16737;50.932;6.780;2022-07-10T05:01:30;16.90;84.90
9984;DHT22;16737;50.932;6.780;2022-07-10T05:03:57;16.90;85.30
9984;DHT22;16737;50.932;6.780;2022-07-10T05:06:24;16.90;85.30
9984;DHT22;16737;50.932;6.780;2022-07-10T05:08:51;16.90;85.50
9984;DHT22;16737;50.932;6.780;2022-07-10T05:11:19;17.00;85.80
9984;DHT22;16737;50.932;6.780;2022-07-10T05:13:46;17.00;85.90
9984;DHT22;16737;50.932;6.780;2022-07-10T05:16:14;17.10;86.10
9984;DHT22;16737;50.932;6.780;2022-07-10T05:18:42;17.10;86.10
9984;DHT22;16737;50.932;6.780;2022-07-10T05:21:09;17.20;86.40
9984;DHT22;16737;50.932;6.780;2022-07-10T05:23:38;17.20;86.10
9984;DHT22;16737;50.932;6.780;2022-07-10T05:26:05;17.30;86.20
9984;DHT22;16737;50.932;6.780;2022-07-10T05:28:32;17.30;86.20
9984;DHT22;16737;50.932;6.780;2022-07-10T05:31:00;17.40;86.40
9984;DHT22;16737;50.932;6.780;2022-07-10T05:33:27;17.40;86.50
9984;DHT22;16737;50.932;6.780;2022-07-10T05:35:55;17.40;86.50
9984;DHT22;16737;50.932;6.780;2022-07-10T05:38:22;17.50;86.70
9984;DHT22;16737;50.932;6.780;2022-07-10T05:40:49;17.60;86.80
9984;DHT22;16737;50.932;6.780;2022-07-10T05:43:18;17.60;86.80
9984;DHT22;16737;50.932;6.780;2022-07-10T05:45:45;17.60;86.70
9984;DHT22;16737;50.932;6.780;2022-07-10T05:48:12;17.70;86.90
9984;DHT22;16737;50.932;6.780;2022-07-10T05:50:39;17.80;86.80
9984;DHT22;16737;50.932;6.780;2022-07-10T05:53:08;17.80;86.60
9984;DHT22;16737;50.932;6.780;2022-07-10T05:55:35;17.90;86.70
9984;DHT22;16737;50.932;6.780;2022-07-10T05:58:02;17.90;87.30
9984;DHT22;16737;50.932;6.780;2022-07-10T06:00:29;18.00;86.60
9984;DHT22;16737;50.932;6.780;2022-07-10T06:02:56;18.00;86.50
9984;DHT22;16737;50.932;6.780;2022-07-10T06:05:23;18.10;86.40
9984;DHT22;16737;50.932;6.780;2022-07-10T06:07:50;18.10;86.30
9984;DHT22;16737;50.932;6.780;2022-07-10T06:10:19;18.20;86.30
9984;DHT22;16737;50.932;6.780;2022-07-10T06:12:46;18.20;86.20
9984;DHT22;16737;50.932;6.780;2022-07-10T06:15:13;18.30;86.10
9984;DHT22;16737;50.932;6.780;2022-07-10T06:17:40;18.30;86.10
9984;DHT22;16737;50.932;6.780;2022-07-10T06:20:08;18.40;86.30
9984;DHT22;16737;50.932;6.780;2022-07-10T06:22:36;18.40;86.40
9984;DHT22;16737;50.932;6.780;2022-07-10T06:25:05;18.40;86.30
9984;DHT22;16737;50.932;6.780;2022-07-10T06:27:35;18.50;86.30
9984;DHT22;16737;50.932;6.780;2022-07-10T06:30:02;18.50;86.20
9984;DHT22;16737;50.932;6.780;2022-07-10T06:32:30;18.60;86.20
9984;DHT22;16737;50.932;6.780;2022-07-10T06:34:57;18.60;86.10
9984;DHT22;16737;50.932;6.780;2022-07-10T06:37:24;18.60;86.00
9984;DHT22;16737;50.932;6.780;2022-07-10T06:39:51;18.70;86.20
9984;DHT22;16737;50.932;6.780;2022-07-10T06:42:19;18.70;86.20
9984;DHT22;16737;50.932;6.780;2022-07-10T06:44:47;18.70;86.20
9984;DHT22;16737;50.932;6.780;2022-07-10T06:47:16;18.80;86.30
9984;DHT22;16737;50.932;6.780;2022-07-10T06:50:02;18.80;86.30
9984;DHT22;16737;50.932;6.780;2022-07-10T06:52:31;18.90;86.30
9984;DHT22;16737;50.932;6.780;2022-07-10T06:54:59;18.90;86.30
9984;DHT22;16737;50.932;6.780;2022-07-10T06:57:27;19.00;86.10
9984;DHT22;16737;50.932;6.780;2022-07-10T06:59:56;19.00;85.90
9984;DHT22;16737;50.932;6.780;2022-07-10T07:02:24;19.10;86.00
9984;DHT22;16737;50.932;6.780;2022-07-10T07:04:51;19.10;85.80
9984;DHT22;16737;50.932;6.780;2022-07-10T07:07:18;19.10;85.80
9984;DHT22;16737;50.932;6.780;2022-07-10T07:09:45;19.10;85.60
9984;DHT22;16737;50.932;6.780;2022-07-10T07:12:15;19.20;85.60
9984;DHT22;16737;50.932;6.780;2022-07-10T07:14:42;19.20;85.50
9984;DHT22;16737;50.932;6.780;2022-07-10T07:17:10;19.20;86.30
9984;DHT22;16737;50.932;6.780;2022-07-10T07:19:40;19.20;85.50
9984;DHT22;16737;50.932;6.780;2022-07-10T07:22:25;19.10;85.20
9984;DHT22;16737;50.932;6.780;2022-07-10T07:25:10;19.10;85.30
9984;DHT22;16737;50.932;6.780;2022-07-10T07:27:38;19.10;85.30
9984;DHT22;16737;50.932;6.780;2022-07-10T07:30:08;19.10;85.50
9984;DHT22;16737;50.932;6.780;2022-07-10T07:32:38;19.10;85.50
9984;DHT22;16737;50.932;6.780;2022-07-10T07:35:07;19.10;85.60
9984;DHT22;16737;50.932;6.780;2022-07-10T07:37:36;19.10;85.40
9984;DHT22;16737;50.932;6.780;2022-07-10T07:40:05;19.10;85.50
9984;DHT22;16737;50.932;6.780;2022-07-10T07:42:33;19.10;85.40
9984;DHT22;16737;50.932;6.780;2022-07-10T07:45:00;19.20;85.50
9984;DHT22;16737;50.932;6.780;2022-07-10T07:47:27;19.10;85.40
9984;DHT22;16737;50.932;6.780;2022-07-10T07:49:56;19.20;85.60
9984;DHT22;16737;50.932;6.780;2022-07-10T07:52:23;19.20;85.60
9984;DHT22;16737;50.932;6.780;2022-07-10T07:54:51;19.20;85.60
9984;DHT22;16737;50.932;6.780;2022-07-10T07:57:18;19.20;85.40
9984;DHT22;16737;50.932;6.780;2022-07-10T07:59:45;19.20;85.30
9984;DHT22;16737;50.932;6.780;2022-07-10T08:02:12;19.30;85.40
9984;DHT22;16737;50.932;6.780;2022-07-10T08:04:39;19.30;85.30
9984;DHT22;16737;50.932;6.780;2022-07-10T08:07:07;19.30;85.30
9984;DHT22;16737;50.932;6.780;2022-07-10T08:09:34;19.40;85.40
9984;DHT22;16737;50.932;6.780;2022-07-10T08:12:01;19.40;85.30
9984;DHT22;16737;50.932;6.780;2022-07-10T08:14:28;19.50;85.30
9984;DHT22;16737;50.932;6.780;2022-07-10T08:16:55;19.50;85.10
9984;DHT22;16737;50.932;6.780;2022-07-10T08:19:22;19.50;84.90
9984;DHT22;16737;50.932;6.780;2022-07-10T08:21:50;19.50;85.00
9984;DHT22;16737;50.932;6.780;2022-07-10T08:24:19;19.50;85.60
9984;DHT22;16737;50.932;6.780;2022-07-10T08:26:46;19.50;84.80
9984;DHT22;16737;50.932;6.780;2022-07-10T08:29:13;19.60;84.90
9984;DHT22;16737;50.932;6.780;2022-07-10T08:31:40;19.60;84.80
9984;DHT22;16737;50.932;6.780;2022-07-10T08:34:07;19.60;84.70
9984;DHT22;16737;50.932;6.780;2022-07-10T08:36:34;19.60;84.80
9984;DHT22;16737;50.932;6.780;2022-07-10T08:39:01;19.60;85.00
9984;DHT22;16737;50.932;6.780;2022-07-10T08:41:31;19.60;85.00
9984;DHT22;16737;50.932;6.780;2022-07-10T08:44:01;19.60;85.10
9984;DHT22;16737;50.932;6.780;2022-07-10T08:46:28;19.70;85.30
9984;DHT22;16737;50.932;6.780;2022-07-10T08:48:59;19.70;85.50
9984;DHT22;16737;50.932;6.780;2022-07-10T08:51:35;19.80;85.60
9984;DHT22;16737;50.932;6.780;2022-07-10T08:54:05;19.90;85.80
9984;DHT22;16737;50.932;6.780;2022-07-10T08:56:34;19.90;85.60
9984;DHT22;16737;50.932;6.780;2022-07-10T08:59:03;20.00;85.60
9984;DHT22;16737;50.932;6.780;2022-07-10T09:01:30;20.00;85.40
9984;DHT22;16737;50.932;6.780;2022-07-10T09:03:58;20.10;85.40
9984;DHT22;16737;50.932;6.780;2022-07-10T09:06:26;20.10;85.20
9984;DHT22;16737;50.932;6.780;2022-07-10T09:08:59;20.20;85.20
9984;DHT22;16737;50.932;6.780;2022-07-10T09:11:27;20.20;85.10
9984;DHT22;16737;50.932;6.780;2022-07-10T09:13:58;20.20;84.90
9984;DHT22;16737;50.932;6.780;2022-07-10T09:16:29;20.20;84.70
9984;DHT22;16737;50.932;6.780;2022-07-10T09:19:14;20.20;84.80
9984;DHT22;16737;50.932;6.780;2022-07-10T09:21:44;20.20;84.80
9984;DHT22;16737;50.932;6.780;2022-07-10T09:24:11;20.20;84.70
9984;DHT22;16737;50.932;6.780;2022-07-10T09:26:40;20.20;84.80
9984;DHT22;16737;50.932;6.780;2022-07-10T09:29:11;20.20;84.90
9984;DHT22;16737;50.932;6.780;2022-07-10T09:31:49;20.20;85.00
9984;DHT22;16737;50.932;6.780;2022-07-10T09:34:18;20.20;85.30
9984;DHT22;16737;50.932;6.780;2022-07-10T09:37:17;20.20;85.30
9984;DHT22;16737;50.932;6.780;2022-07-10T09:39:56;20.20;85.60
9984;DHT22;16737;50.932;6.780;2022-07-10T09:42:28;20.30;85.80
9984;DHT22;16737;50.932;6.780;2022-07-10T09:45:17;20.30;85.60
9984;DHT22;16737;50.932;6.780;2022-07-10T09:47:53;20.30;85.80
9984;DHT22;16737;50.932;6.780;2022-07-10T09:50:24;20.40;85.80
9984;DHT22;16737;50.932;6.780;2022-07-10T09:52:54;20.40;85.90
9984;DHT22;16737;50.932;6.780;2022-07-10T09:55:24;20.50;86.30
9984;DHT22;16737;50.932;6.780;2022-07-10T09:57:56;20.60;86.20
9984;DHT22;16737;50.932;6.780;2022-07-10T10:00:27;20.60;86.10
9984;DHT22;16737;50.932;6.780;2022-07-10T10:02:57;20.80;85.90
9984;DHT22;16737;50.932;6.780;2022-07-10T10:05:36;20.70;85.60
9984;DHT22;16737;50.932;6.780;2022-07-10T10:08:17;20.70;85.40
9984;DHT22;16737;50.932;6.780;2022-07-10T10:10:49;20.70;85.50
9984;DHT22;16737;50.932;6.780;2022-07-10T10:13:18;20.70;85.30
9984;DHT22;16737;50.932;6.780;2022-07-10T10:15:49;20.70;85.20
9984;DHT22;16737;50.932;6.780;2022-07-10T10:18:18;20.70;85.40
9984;DHT22;16737;50.932;6.780;2022-07-10T10:20:47;20.60;85.30
9984;DHT22;16737;50.932;6.780;2022-07-10T10:23:16;20.60;85.30
9984;DHT22;16737;50.932;6.780;2022-07-10T10:25:46;20.60;85.50
9984;DHT22;16737;50.932;6.780;2022-07-10T10:28:15;20.60;85.60
9984;DHT22;16737;50.932;6.780;2022-07-10T10:30:48;20.60;85.80
9984;DHT22;16737;50.932;6.780;2022-07-10T10:33:42;20.50;85.80
9984;DHT22;16737;50.932;6.780;2022-07-10T10:36:11;20.50;86.40
9984;DHT22;16737;50.932;6.780;2022-07-10T10:39:02;20.50;86.30
9984;DHT22;16737;50.932;6.780;2022-07-10T10:41:40;20.60;86.90
9984;DHT22;16737;50.932;6.780;2022-07-10T10:44:26;20.60;87.10
9984;DHT22;16737;50.932;6.780;2022-07-10T10:47:08;20.70;87.00
9984;DHT22;16737;50.932;6.780;2022-07-10T10:49:55;20.80;86.90
9984;DHT22;16737;50.932;6.780;2022-07-10T10:52:24;20.80;86.90
9984;DHT22;16737;50.932;6.780;2022-07-10T10:55:03;20.90;86.80
9984;DHT22;16737;50.932;6.780;2022-07-10T10:57:41;20.90;87.00
9984;DHT22;16737;50.932;6.780;2022-07-10T11:00:29;21.00;86.80
9984;DHT22;16737;50.932;6.780;2022-07-10T11:03:17;21.00;86.60
9984;DHT22;16737;50.932;6.780;2022-07-10T11:05:47;21.00;86.70
9984;DHT22;16737;50.932;6.780;2022-07-10T11:08:37;21.00;86.40
9984;DHT22;16737;50.932;6.780;2022-07-10T11:11:36;21.00;86.70
9984;DHT22;16737;50.932;6.780;2022-07-10T11:14:06;21.00;86.30
9984;DHT22;16737;50.932;6.780;2022-07-10T11:16:34;21.00;86.20
9984;DHT22;16737;50.932;6.780;2022-07-10T11:19:02;21.00;86.50
9984;DHT22;16737;50.932;6.780;2022-07-10T11:21:39;20.90;86.60
9984;DHT22;16737;50.932;6.780;2022-07-10T11:24:33;21.00;86.90
9984;DHT22;16737;50.932;6.780;2022-07-10T11:27:20;21.00;87.00
9984;DHT22;16737;50.932;6.780;2022-07-10T11:29:58;20.90;87.00
9984;DHT22;16737;50.932;6.780;2022-07-10T11:32:26;21.00;87.10
9984;DHT22;16737;50.932;6.780;2022-07-10T11:34:56;21.00;86.90
9984;DHT22;16737;50.932;6.780;2022-07-10T11:37:24;21.00;86.90
9984;DHT22;16737;50.932;6.780;2022-07-10T11:40:08;21.00;86.70
9984;DHT22;16737;50.932;6.780;2022-07-10T11:42:49;21.00;87.00
9984;DHT22;16737;50.932;6.780;2022-07-10T11:45:25;21.00;87.00
9984;DHT22;16737;50.932;6.780;2022-07-10T11:47:56;21.00;87.00
9984;DHT22;16737;50.932;6.780;2022-07-10T11:50:26;21.00;86.80
9984;DHT22;16737;50.932;6.780;2022-07-10T11:52:54;21.00;86.90
9984;DHT22;16737;50.932;6.780;2022-07-10T11:55:22;21.00;86.90
9984;DHT22;16737;50.932;6.780;2022-07-10T11:57:50;21.00;87.70
9984;DHT22;16737;50.932;6.780;2022-07-10T12:00:22;21.00;87.00
9984;DHT22;16737;50.932;6.780;2022-07-10T12:02:51;21.10;87.40
9984;DHT22;16737;50.932;6.780;2022-07-10T12:05:33;21.10;87.20
9984;DHT22;16737;50.932;6.780;2022-07-10T12:08:02;21.10;87.40
9984;DHT22;16737;50.932;6.780;2022-07-10T12:10:31;21.10;87.40
9984;DHT22;16737;50.932;6.780;2022-07-10T12:13:06;21.20;87.10
9984;DHT22;16737;50.932;6.780;2022-07-10T12:15:35;21.20;87.20
9984;DHT22;16737;50.932;6.780;2022-07-10T12:18:04;21.20;87.10
9984;DHT22;16737;50.932;6.780;2022-07-10T12:20:34;21.20;86.90
9984;DHT22;16737;50.932;6.780;2022-07-10T12:23:03;21.20;86.90
9984;DHT22;16737;50.932;6.780;2022-07-10T12:25:31;21.20;86.70
9984;DHT22;16737;50.932;6.780;2022-07-10T12:27:58;21.20;86.60
9984;DHT22;16737;50.932;6.780;2022-07-10T12:30:39;21.20;87.30
9984;DHT22;16737;50.932;6.780;2022-07-10T12:33:08;21.20;86.60
9984;DHT22;16737;50.932;6.780;2022-07-10T12:35:51;21.20;86.60
9984;DHT22;16737;50.932;6.780;2022-07-10T12:38:22;21.20;87.00
9984;DHT22;16737;50.932;6.780;2022-07-10T12:40:51;21.10;86.80
9984;DHT22;16737;50.932;6.780;2022-07-10T12:43:32;21.20;87.10
9984;DHT22;16737;50.932;6.780;2022-07-10T12:46:10;21.20;87.10
9984;DHT22;16737;50.932;6.780;2022-07-10T12:48:38;21.20;87.20
9984;DHT22;16737;50.932;6.780;2022-07-10T12:51:25;21.20;87.10
9984;DHT22;16737;50.932;6.780;2022-07-10T12:53:54;21.20;87.40
9984;DHT22;16737;50.932;6.780;2022-07-10T12:56:33;21.30;87.20
9984;DHT22;16737;50.932;6.780;2022-07-10T12:59:02;21.30;87.40
9984;DHT22;16737;50.932;6.780;2022-07-10T13:01:42;21.30;87.30
9984;DHT22;16737;50.932;6.780;2022-07-10T13:04:10;21.30;87.40
9984;DHT22;16737;50.932;6.780;2022-07-10T13:06:39;21.30;87.40
9984;DHT22;16737;50.932;6.780;2022-07-10T13:09:20;21.40;87.60
9984;DHT22;16737;50.932;6.780;2022-07-10T13:11:49;21.40;87.60
9984;DHT22;16737;50.932;6.780;2022-07-10T13:14:16;21.40;87.40
9984;DHT22;16737;50.932;6.780;2022-07-10T13:16:43;21.40;87.40
9984;DHT22;16737;50.932;6.780;2022-07-10T13:19:11;21.40;87.20
9984;DHT22;16737;50.932;6.780;2022-07-10T13:21:40;21.40;87.10
9984;DHT22;16737;50.932;6.780;2022-07-10T13:24:06;21.40;87.10
9984;DHT22;16737;50.932;6.780;2022-07-10T13:26:34;21.40;87.00
9984;DHT22;16737;50.932;6.780;2022-07-10T13:29:01;21.40;87.10
9984;DHT22;16737;50.932;6.780;2022-07-10T13:31:28;21.30;87.10
9984;DHT22;16737;50.932;6.780;2022-07-10T13:33:55;21.40;87.40
9984;DHT22;16737;50.932;6.780;2022-07-10T13:36:23;21.30;87.40
9984;DHT22;16737;50.932;6.780;2022-07-10T13:38:51;21.40;87.70
9984;DHT22;16737;50.932;6.780;2022-07-10T13:41:20;21.40;87.70
9984;DHT22;16737;50.932;6.780;2022-07-10T13:43:47;21.40;87.70
9984;DHT22;16737;50.932;6.780;2022-07-10T13:46:14;21.50;87.70
9984;DHT22;16737;50.932;6.780;2022-07-10T13:48:41;21.50;87.80
9984;DHT22;16737;50.932;6.780;2022-07-10T13:51:08;21.50;87.60
9984;DHT22;16737;50.932;6.780;2022-07-10T13:53:35;21.50;87.70
9984;DHT22;16737;50.932;6.780;2022-07-10T13:56:06;21.60;87.90
9984;DHT22;16737;50.932;6.780;2022-07-10T13:58:35;21.60;88.40
9984;DHT22;16737;50.932;6.780;2022-07-10T14:01:02;21.70;88.40
9984;DHT22;16737;50.932;6.780;2022-07-10T14:03:29;21.80;88.40
9984;DHT22;16737;50.932;6.780;2022-07-10T14:05:57;21.80;88.30
9984;DHT22;16737;50.932;6.780;2022-07-10T14:08:24;21.90;88.20
9984;DHT22;16737;50.932;6.780;2022-07-10T14:10:51;22.00;88.10
9984;DHT22;16737;50.932;6.780;2022-07-10T14:13:20;22.00;87.90
9984;DHT22;16737;50.932;6.780;2022-07-10T14:15:47;22.20;88.20
9984;DHT22;16737;50.932;6.780;2022-07-10T14:18:14;22.20;88.20
9984;DHT22;16737;50.932;6.780;2022-07-10T14:21:00;22.30;88.00
9984;DHT22;16737;50.932;6.780;2022-07-10T14:23:30;22.40;87.80
9984;DHT22;16737;50.932;6.780;2022-07-10T14:25:58;22.50;87.50
9984;DHT22;16737;50.932;6.780;2022-07-10T14:28:26;22.50;87.30
9984;DHT22;16737;50.932;6.780;2022-07-10T14:30:54;22.60;87.50
9984;DHT22;16737;50.932;6.780;2022-07-10T14:33:22;22.60;87.10
9984;DHT22;16737;50.932;6.780;2022-07-10T14:35:49;22.70;86.90
9984;DHT22;16737;50.932;6.780;2022-07-10T14:38:16;22.70;86.80
9984;DHT22;16737;50.932;6.780;2022-07-10T14:40:43;22.80;86.60
9984;DHT22;16737;50.932;6.780;2022-07-10T14:43:11;22.80;86.50
9984;DHT22;16737;50.932;6.780;2022-07-10T14:45:39;22.80;86.50
9984;DHT22;16737;50.932;6.780;2022-07-10T14:48:06;22.80;86.30
9984;DHT22;16737;50.932;6.780;2022-07-10T14:50:33;22.80;86.20
9984;DHT22;16737;50.932;6.780;2022-07-10T14:53:00;22.80;86.10
9984;DHT22;16737;50.932;6.780;2022-07-10T14:55:27;22.80;86.00
9984;DHT22;16737;50.932;6.780;2022-07-10T14:57:55;22.80;86.10
9984;DHT22;16737;50.932;6.780;2022-07-10T15:00:22;22.80;86.10
9984;DHT22;16737;50.932;6.780;2022-07-10T15:02:51;22.90;86.40
9984;DHT22;16737;50.932;6.780;2022-07-10T15:05:18;22.80;85.90
9984;DHT22;16737;50.932;6.780;2022-07-10T15:07:45;22.90;85.90
9984;DHT22;16737;50.932;6.780;2022-07-10T15:10:12;22.90;85.80
9984;DHT22;16737;50.932;6.780;2022-07-10T15:12:41;22.90;85.70
9984;DHT22;16737;50.932;6.780;2022-07-10T15:15:10;23.00;85.60
9984;DHT22;16737;50.932;6.780;2022-07-10T15:17:37;23.00;85.60
9984;DHT22;16737;50.932;6.780;2022-07-10T15:20:06;23.00;85.60
9984;DHT22;16737;50.932;6.780;2022-07-10T15:22:34;23.00;85.40
9984;DHT22;16737;50.932;6.780;2022-07-10T15:25:01;23.00;85.40
9984;DHT22;16737;50.932;6.780;2022-07-10T15:27:28;23.00;85.20
9984;DHT22;16737;50.932;6.780;2022-07-10T15:29:55;23.00;85.00
9984;DHT22;16737;50.932;6.780;2022-07-10T15:32:22;23.00;85.00
9984;DHT22;16737;50.932;6.780;2022-07-10T15:34:49;23.00;85.00
9984;DHT22;16737;50.932;6.780;2022-07-10T15:37:17;23.00;85.00
9984;DHT22;16737;50.932;6.780;2022-07-10T15:39:45;22.90;85.00
9984;DHT22;16737;50.932;6.780;2022-07-10T15:42:12;22.90;85.10
9984;DHT22;16737;50.932;6.780;2022-07-10T15:44:39;22.90;85.20
9984;DHT22;16737;50.932;6.780;2022-07-10T15:47:07;22.90;85.20
9984;DHT22;16737;50.932;6.780;2022-07-10T15:49:34;22.90;85.20
9984;DHT22;16737;50.932;6.780;2022-07-10T15:52:02;23.00;85.30
9984;DHT22;16737;50.932;6.780;2022-07-10T15:54:31;23.00;85.30
9984;DHT22;16737;50.932;6.780;2022-07-10T15:56:58;23.00;85.10
9984;DHT22;16737;50.932;6.780;2022-07-10T15:59:27;23.00;85.30